LKPR/PRG METAR and TAF weather

Enter ICAO airport designator
Station Type Date Time Source
LKPR METAR 2020/04/02 03:00 UTC NOAA

LKPR 020300Z 24004KT CAVOK M02/M09 Q1014 NOSIG


Station Type Date Time Source
LKPR Decoded METAR 2020/04/02 03:00 UTC NOAA

Praha / Ruzyne, Czech Republic (LKPR) 50-06N 014-15E 365M
Apr 01, 2020 - 11:00 PM EDT / 2020.04.02 0300 UTC
Wind: from the WSW (240 degrees) at 5 MPH (4 KT):0
Visibility: greater than 7 mile(s):0
Temperature: 28 F (-2 C)
Windchill: 23 F (-5 C):1
Dew Point: 15 F (-9 C)
Relative Humidity: 58%
Pressure (altimeter): 29.94 in. Hg (1014 hPa)
ob: LKPR 020300Z 24004KT CAVOK M02/M09 Q1014 NOSIG
cycle: 3

Station Type Date Time Source
LKPR TAF 2020/04/01 18:08 UTC NOAA

TAF LKPR 011700Z 0118/0300 22004KT CAVOK
TEMPO 0118/0212 VRB02KT
BECMG 0212/0214 24010KT

Example: see airport list